createdAt,value
2023-03-04T00:02:07.391Z,9.73
2023-03-04T00:04:33.731Z,11.13
2023-03-04T00:07:00.087Z,10.63
2023-03-04T00:09:26.753Z,10.90
2023-03-04T00:11:53.370Z,10.68
2023-03-04T00:14:19.828Z,11.05
2023-03-04T00:16:46.332Z,11.43
2023-03-04T00:19:12.874Z,10.57
2023-03-04T00:21:39.299Z,10.10
2023-03-04T00:24:06.668Z,10.98
2023-03-04T00:26:33.107Z,8.77
2023-03-04T00:28:59.739Z,8.57
2023-03-04T00:31:26.182Z,11.90
2023-03-04T00:33:52.548Z,11.93
2023-03-04T00:36:18.880Z,9.38
2023-03-04T00:38:45.289Z,11.07
2023-03-04T00:41:11.726Z,9.45
2023-03-04T00:43:38.069Z,10.80
2023-03-04T00:46:04.784Z,12.02
2023-03-04T00:48:31.332Z,11.48
2023-03-04T00:50:57.747Z,12.40
2023-03-04T00:53:24.187Z,10.82
2023-03-04T00:55:50.709Z,13.05
2023-03-04T00:58:17.396Z,9.82
2023-03-04T01:00:43.877Z,12.50
2023-03-04T01:03:10.384Z,12.52
2023-03-04T01:05:36.823Z,10.93
2023-03-04T01:08:03.845Z,10.60
2023-03-04T01:10:30.380Z,10.32
2023-03-04T01:12:56.973Z,11.25
2023-03-04T01:15:23.598Z,10.00
2023-03-04T01:17:50.097Z,9.77
2023-03-04T01:20:16.842Z,11.75
2023-03-04T01:22:43.415Z,10.85
2023-03-04T01:25:10.695Z,9.52
2023-03-04T01:27:37.071Z,9.70
2023-03-04T01:30:04.695Z,9.10
2023-03-04T01:32:31.166Z,10.10
2023-03-04T01:34:57.580Z,10.13
2023-03-04T01:37:24.044Z,10.40
2023-03-04T01:39:50.398Z,10.88
2023-03-04T01:42:22.331Z,11.50
2023-03-04T01:44:49.526Z,11.32
2023-03-04T01:47:16.253Z,12.38
2023-03-04T01:49:42.705Z,11.07
2023-03-04T01:52:13.906Z,9.60
2023-03-04T01:54:41.116Z,10.32
2023-03-04T01:57:17.358Z,10.88
2023-03-04T01:59:43.767Z,10.27
2023-03-04T02:02:10.726Z,10.50
2023-03-04T02:04:37.383Z,10.88
2023-03-04T02:07:04.278Z,11.63
2023-03-04T02:09:31.680Z,9.15
2023-03-04T02:11:58.393Z,9.65
2023-03-04T02:14:24.872Z,9.77
2023-03-04T02:16:51.636Z,9.88
2023-03-04T02:19:39.454Z,9.07
2023-03-04T02:22:05.983Z,10.35
2023-03-04T02:24:39.538Z,10.30
2023-03-04T02:27:05.918Z,8.57
2023-03-04T02:29:32.465Z,9.98
2023-03-04T02:31:58.906Z,9.73
2023-03-04T02:34:33.484Z,9.93
2023-03-04T02:37:00.632Z,9.82
2023-03-04T02:39:36.134Z,9.93
2023-03-04T02:42:03.605Z,9.10
2023-03-04T02:44:32.095Z,10.52
2023-03-04T02:46:59.202Z,9.75
2023-03-04T02:49:27.488Z,11.13
2023-03-04T02:52:09.363Z,11.40
2023-03-04T02:54:37.912Z,9.27
2023-03-04T02:57:09.318Z,9.82
2023-03-04T02:59:37.110Z,10.20
2023-03-04T03:02:03.794Z,9.18
2023-03-04T03:04:30.354Z,9.65
2023-03-04T03:06:56.736Z,10.75
2023-03-04T03:09:23.402Z,10.52
2023-03-04T03:11:50.025Z,12.85
2023-03-04T03:14:16.654Z,9.75
2023-03-04T03:16:43.355Z,9.00
2023-03-04T03:19:09.978Z,9.32
2023-03-04T03:21:36.564Z,8.80
2023-03-04T03:24:02.958Z,10.30
2023-03-04T03:26:29.376Z,9.23
2023-03-04T03:28:55.732Z,9.45
2023-03-04T03:31:22.240Z,8.50
2023-03-04T03:33:48.638Z,7.20
2023-03-04T03:36:15.044Z,8.25
2023-03-04T03:38:41.494Z,9.60
2023-03-04T03:41:07.902Z,9.38
2023-03-04T03:43:34.344Z,8.68
2023-03-04T03:46:01.942Z,6.75
2023-03-04T03:48:28.406Z,7.97
2023-03-04T03:50:54.773Z,10.13
2023-03-04T03:53:21.266Z,8.35
2023-03-04T03:55:47.673Z,9.35
2023-03-04T03:58:14.349Z,9.63
2023-03-04T04:00:40.666Z,9.15
2023-03-04T04:03:07.391Z,9.45
2023-03-04T04:05:33.796Z,12.20
2023-03-04T04:08:00.261Z,8.82
2023-03-04T04:10:26.834Z,8.70
2023-03-04T04:12:53.226Z,9.70
2023-03-04T04:15:19.716Z,9.90
2023-03-04T04:17:46.058Z,8.60
2023-03-04T04:20:12.805Z,8.98
2023-03-04T04:22:39.235Z,10.82
2023-03-04T04:25:06.289Z,9.85
2023-03-04T04:27:32.682Z,10.43
2023-03-04T04:29:59.110Z,8.98
2023-03-04T04:32:25.581Z,10.20
2023-03-04T04:34:52.112Z,9.75
2023-03-04T04:37:18.561Z,9.82
2023-03-04T04:39:44.978Z,9.60
2023-03-04T04:42:11.538Z,8.35
2023-03-04T04:44:38.956Z,10.13
2023-03-04T04:47:07.275Z,10.00
2023-03-04T04:52:00.513Z,10.77
2023-03-04T04:54:26.945Z,9.48
2023-03-04T04:56:53.638Z,9.50
2023-03-04T04:59:20.160Z,10.18
2023-03-04T05:01:46.520Z,10.77
2023-03-04T05:04:13.041Z,10.55
2023-03-04T05:06:39.494Z,11.38
2023-03-04T05:09:06.251Z,8.93
2023-03-04T05:11:33.775Z,9.63
2023-03-04T05:14:00.291Z,10.55
2023-03-04T05:16:26.693Z,9.32
2023-03-04T05:18:53.285Z,9.60
2023-03-04T05:21:19.855Z,9.52
2023-03-04T05:23:46.312Z,8.68
2023-03-04T05:26:15.674Z,9.85
2023-03-04T05:28:42.603Z,9.23
2023-03-04T05:31:09.294Z,10.95
2023-03-04T05:33:36.324Z,9.88
2023-03-04T05:36:04.913Z,9.32
2023-03-04T05:38:31.560Z,10.00
2023-03-04T05:40:59.547Z,11.02
2023-03-04T05:43:27.846Z,9.10
2023-03-04T05:48:21.387Z,8.80
2023-03-04T05:50:47.743Z,9.95
2023-03-04T05:53:15.345Z,9.52
2023-03-04T05:55:47.199Z,10.77
2023-03-04T05:58:13.988Z,11.10
2023-03-04T06:00:40.516Z,11.95
2023-03-04T06:03:06.944Z,10.80
2023-03-04T06:05:33.416Z,8.88
2023-03-04T06:07:59.746Z,9.73
2023-03-04T06:10:26.100Z,9.20
2023-03-04T06:12:52.801Z,9.82
2023-03-04T06:15:23.417Z,10.15
2023-03-04T06:17:50.045Z,10.80
2023-03-04T06:20:16.692Z,10.80
2023-03-04T06:22:43.321Z,9.07
2023-03-04T06:25:10.116Z,10.60
2023-03-04T06:27:36.816Z,9.70
2023-03-04T06:30:03.937Z,11.15
2023-03-04T06:32:30.434Z,10.48
2023-03-04T06:34:57.085Z,9.32
2023-03-04T06:37:23.890Z,9.10
2023-03-04T06:39:50.426Z,9.80
2023-03-04T06:42:17.008Z,9.88
2023-03-04T06:44:43.695Z,10.57
2023-03-04T06:47:10.192Z,10.18
2023-03-04T06:49:36.592Z,11.43
2023-03-04T06:52:03.341Z,9.65
2023-03-04T06:54:30.122Z,10.63
2023-03-04T06:56:56.815Z,10.13
2023-03-04T06:59:23.617Z,10.45
2023-03-04T07:01:50.158Z,10.07
2023-03-04T07:04:16.650Z,10.80
2023-03-04T07:06:43.304Z,9.82
2023-03-04T07:09:09.981Z,10.48
2023-03-04T07:11:36.485Z,10.23
2023-03-04T07:14:03.207Z,8.98
2023-03-04T07:16:29.682Z,9.23
2023-03-04T07:18:56.164Z,9.63
2023-03-04T07:21:22.997Z,11.55
2023-03-04T07:23:52.646Z,10.00
2023-03-04T07:26:19.057Z,10.65
2023-03-04T07:28:45.685Z,11.00
2023-03-04T07:31:27.615Z,9.52
2023-03-04T07:33:57.451Z,10.52
2023-03-04T07:36:24.110Z,11.95
2023-03-04T07:38:51.335Z,12.48
2023-03-04T07:41:18.383Z,12.23
2023-03-04T07:43:45.239Z,12.25
2023-03-04T07:46:14.890Z,12.50
2023-03-04T07:48:41.503Z,10.85
2023-03-04T07:51:15.285Z,10.85
2023-03-04T07:53:44.024Z,11.18
2023-03-04T07:56:17.731Z,9.75
2023-03-04T07:58:44.571Z,11.88
2023-03-04T08:01:38.431Z,11.13
2023-03-04T08:06:32.892Z,9.32
2023-03-04T08:09:01.991Z,10.52
2023-03-04T08:11:29.929Z,9.85
2023-03-04T08:13:56.835Z,9.32
2023-03-04T08:16:24.326Z,9.93
2023-03-04T08:18:53.814Z,10.60
2023-03-04T08:21:21.643Z,11.32
2023-03-04T08:23:48.704Z,11.50
2023-03-04T08:26:18.172Z,10.00
2023-03-04T08:28:45.867Z,9.10
2023-03-04T08:31:17.177Z,10.57
2023-03-04T08:33:43.955Z,9.50
2023-03-04T08:36:10.891Z,9.35
2023-03-04T08:38:37.314Z,10.65
2023-03-04T08:41:04.296Z,9.88
2023-03-04T08:43:30.688Z,8.52
2023-03-04T08:45:57.248Z,7.07
2023-03-04T08:48:24.141Z,8.20
2023-03-04T08:50:50.903Z,8.18
2023-03-04T08:53:18.388Z,8.77
2023-03-04T08:55:45.201Z,8.77
2023-03-04T08:58:12.281Z,9.43
2023-03-04T09:00:42.878Z,8.77
2023-03-04T09:03:11.920Z,8.48
2023-03-04T09:05:39.031Z,7.57
2023-03-04T09:08:05.625Z,6.75
2023-03-04T09:10:31.976Z,8.95
2023-03-04T09:12:59.113Z,8.13
2023-03-04T09:15:25.496Z,7.53
2023-03-04T09:17:51.829Z,7.00
2023-03-04T09:20:18.419Z,7.47
2023-03-04T09:22:44.790Z,7.15
2023-03-04T09:25:14.717Z,5.60
2023-03-04T09:27:41.423Z,5.60
2023-03-04T09:30:08.869Z,7.10
2023-03-04T09:32:35.584Z,5.97
2023-03-04T09:35:02.133Z,5.85
2023-03-04T09:37:28.670Z,6.05
2023-03-04T09:39:55.052Z,6.05
2023-03-04T09:42:32.543Z,5.47
2023-03-04T09:44:59.249Z,5.35
2023-03-04T09:47:26.453Z,5.30
2023-03-04T09:50:03.886Z,6.00
2023-03-04T09:52:55.251Z,6.53
2023-03-04T09:55:25.321Z,6.32
2023-03-04T09:58:09.510Z,5.45
2023-03-04T10:00:40.023Z,5.97
2023-03-04T10:03:13.082Z,6.05
2023-03-04T10:05:44.800Z,5.03
2023-03-04T10:08:22.943Z,5.38
2023-03-04T10:10:49.598Z,6.43
2023-03-04T10:13:20.307Z,3.45
2023-03-04T10:15:48.589Z,4.65
2023-03-04T10:18:22.529Z,4.18
2023-03-04T10:20:54.133Z,4.30
2023-03-04T10:23:26.074Z,3.83
2023-03-04T10:25:54.204Z,4.03
2023-03-04T10:28:29.611Z,4.82
2023-03-04T10:31:06.920Z,5.55
2023-03-04T10:33:40.703Z,4.07
2023-03-04T10:36:31.219Z,4.60
2023-03-04T10:39:31.713Z,4.47
2023-03-04T10:42:00.995Z,1.92
2023-03-04T10:44:28.161Z,2.88
2023-03-04T10:46:56.152Z,4.25
2023-03-04T10:49:24.797Z,5.55
2023-03-04T10:52:02.734Z,4.13
2023-03-04T10:54:33.106Z,1.73
2023-03-04T10:57:16.446Z,4.20
2023-03-04T10:59:50.741Z,3.60
2023-03-04T11:02:37.889Z,3.83
2023-03-04T11:05:24.646Z,3.95
2023-03-04T11:07:56.146Z,3.60
2023-03-04T11:10:35.686Z,3.15
2023-03-04T11:13:09.243Z,2.90
2023-03-04T11:15:51.628Z,3.38
2023-03-04T11:18:24.209Z,2.42
2023-03-04T11:20:50.982Z,3.40
2023-03-04T11:23:19.667Z,3.30
2023-03-04T11:26:01.655Z,1.58
2023-03-04T11:28:54.005Z,3.45
2023-03-04T11:31:24.460Z,3.45
2023-03-04T11:33:58.143Z,3.67
2023-03-04T11:36:57.326Z,2.97
2023-03-04T11:39:35.987Z,2.67
2023-03-04T11:42:22.737Z,2.10
2023-03-04T11:44:49.296Z,3.05
2023-03-04T11:47:23.356Z,3.15
2023-03-04T11:49:55.767Z,3.00
2023-03-04T11:52:45.565Z,2.83
2023-03-04T11:55:29.947Z,2.97
2023-03-04T11:58:05.620Z,3.40
2023-03-04T12:00:40.507Z,3.40
2023-03-04T12:03:22.316Z,2.60
2023-03-04T12:06:00.904Z,2.60
2023-03-04T12:08:39.369Z,2.55
2023-03-04T12:11:11.177Z,3.20
2023-03-04T12:13:48.096Z,2.28
2023-03-04T12:16:26.306Z,1.67
2023-03-04T12:19:12.134Z,3.05
2023-03-04T12:21:51.415Z,2.92
2023-03-04T12:24:30.384Z,3.03
2023-03-04T12:27:33.204Z,2.92
2023-03-04T12:30:17.219Z,3.33
2023-03-04T12:33:05.798Z,3.10
2023-03-04T12:36:03.088Z,2.70
2023-03-04T12:38:42.024Z,2.63
2023-03-04T12:41:30.269Z,1.98
2023-03-04T12:44:19.308Z,2.33
2023-03-04T12:47:15.185Z,1.92
